Main page
METAR-TAF:

METAR-TAF

Airports :

Stauning Vestjylland Airport

Ringkøbing-Skjern, Denmark

latitude: 56-00N, longitude: 008-21E, elevation: 5 m

Current weather observation

The report was made 30 minutes ago, at 10:50 UTC
Wind 9 kt from the South
Temperature 7°C
Humidity 76%
Pressure 1002 hPa
Visibility 10 km or more

METAR: EKVJ 251050Z AUTO 19009KT 9999 FEW023/// 07/03 Q1002 TEST

Time: 13:20 (11:20 UTC)

Forecast

The report was made 6 hours and 11 minutes ago, at 05:09 UTC
Forecast valid from 25 at 06 UTC to 25 at 15 UTC
Wind 3 kt from the East
Visibility 10 km or more
Scattered clouds at a height of 3000 ft
Temporary
from 25 at 06 UTC to 25 at 15 UTC
Visibility: 4000 m
Broken clouds at a height of 1200 ft
Scattered clouds at a height of 2000 ft, Cumulonimbus.
rain showers, small hail or snow pellets,

TAF: EKVJ 250509Z 2506/2515 08003KT 9999 SCT030 TEMPO 2506/2515 4000 SHRAGS BKN012 SCT020CB

Weather observations and forecasts of more than 4000 airports (METAR and TAF reports).

The available stations are represented by yellow and red dots on the map.

Hover mouse over dot to see the name of the station.

Then click to see weather observations and forecasts.

To change the map : click on the green buttons with a black cross to zoom in, on the green button with a dash to zoom out, or on the green arrows for adjacent maps.


METAR-TAF: